sensor_id;sensor_type;location;lat;lon;timestamp;temperature;humidity
702;DHT22;334;48.808;9.222;2022-07-15T00:00:18;24.70;1.00
702;DHT22;334;48.808;9.222;2022-07-15T00:01:20;24.70;1.00
702;DHT22;334;48.808;9.222;2022-07-15T00:02:22;24.70;1.00
702;DHT22;334;48.808;9.222;2022-07-15T00:03:24;24.60;1.00
702;DHT22;334;48.808;9.222;2022-07-15T00:04:25;24.60;1.00
702;DHT22;334;48.808;9.222;2022-07-15T00:05:27;24.60;1.00
702;DHT22;334;48.808;9.222;2022-07-15T00:06:29;24.50;1.00
702;DHT22;334;48.808;9.222;2022-07-15T00:07:31;24.50;1.00
702;DHT22;334;48.808;9.222;2022-07-15T00:08:33;24.50;1.00
702;DHT22;334;48.808;9.222;2022-07-15T00:09:35;24.50;1.00
702;DHT22;334;48.808;9.222;2022-07-15T00:10:55;24.50;1.00
702;DHT22;334;48.808;9.222;2022-07-15T00:11:57;24.40;1.00
702;DHT22;334;48.808;9.222;2022-07-15T00:13:00;24.40;1.00
702;DHT22;334;48.808;9.222;2022-07-15T00:14:03;24.30;1.00
702;DHT22;334;48.808;9.222;2022-07-15T00:15:05;24.30;1.00
702;DHT22;334;48.808;9.222;2022-07-15T00:16:09;24.40;1.00
702;DHT22;334;48.808;9.222;2022-07-15T00:17:10;24.30;1.00
702;DHT22;334;48.808;9.222;2022-07-15T00:18:12;24.30;1.00
702;DHT22;334;48.808;9.222;2022-07-15T00:19:14;24.30;1.00
702;DHT22;334;48.808;9.222;2022-07-15T00:20:16;24.30;1.00
702;DHT22;334;48.808;9.222;2022-07-15T00:21:19;24.20;1.00
702;DHT22;334;48.808;9.222;2022-07-15T00:22:21;24.20;1.00
702;DHT22;334;48.808;9.222;2022-07-15T00:23:23;24.10;1.00
702;DHT22;334;48.808;9.222;2022-07-15T00:24:25;24.10;1.00
702;DHT22;334;48.808;9.222;2022-07-15T00:25:26;24.20;1.00
702;DHT22;334;48.808;9.222;2022-07-15T00:26:29;24.10;1.00
702;DHT22;334;48.808;9.222;2022-07-15T00:27:50;24.10;1.00
702;DHT22;334;48.808;9.222;2022-07-15T00:28:52;24.10;1.00
702;DHT22;334;48.808;9.222;2022-07-15T00:29:56;24.10;1.00
702;DHT22;334;48.808;9.222;2022-07-15T00:30:58;24.10;1.00
702;DHT22;334;48.808;9.222;2022-07-15T00:31:59;24.10;1.00
702;DHT22;334;48.808;9.222;2022-07-15T00:33:02;24.10;1.00
702;DHT22;334;48.808;9.222;2022-07-15T00:34:04;24.10;1.00
702;DHT22;334;48.808;9.222;2022-07-15T00:35:06;24.10;1.00
702;DHT22;334;48.808;9.222;2022-07-15T00:36:09;24.10;1.00
702;DHT22;334;48.808;9.222;2022-07-15T00:37:10;24.10;1.00
702;DHT22;334;48.808;9.222;2022-07-15T00:38:13;24.00;1.00
702;DHT22;334;48.808;9.222;2022-07-15T00:39:16;24.00;1.00
702;DHT22;334;48.808;9.222;2022-07-15T00:40:18;24.00;1.00
702;DHT22;334;48.808;9.222;2022-07-15T00:41:20;24.00;1.00
702;DHT22;334;48.808;9.222;2022-07-15T00:42:22;24.00;1.00
702;DHT22;334;48.808;9.222;2022-07-15T00:43:43;24.00;1.00
702;DHT22;334;48.808;9.222;2022-07-15T00:44:45;24.00;1.00
702;DHT22;334;48.808;9.222;2022-07-15T00:45:47;23.90;1.00
702;DHT22;334;48.808;9.222;2022-07-15T00:46:49;23.90;1.00
702;DHT22;334;48.808;9.222;2022-07-15T00:47:54;23.90;1.00
702;DHT22;334;48.808;9.222;2022-07-15T00:48:57;23.90;1.00
702;DHT22;334;48.808;9.222;2022-07-15T00:49:59;23.80;1.00
702;DHT22;334;48.808;9.222;2022-07-15T00:51:01;23.80;1.00
702;DHT22;334;48.808;9.222;2022-07-15T00:52:03;23.80;1.00
702;DHT22;334;48.808;9.222;2022-07-15T00:53:18;23.80;1.00
702;DHT22;334;48.808;9.222;2022-07-15T00:54:25;23.80;1.00
702;DHT22;334;48.808;9.222;2022-07-15T00:55:30;23.80;1.00
702;DHT22;334;48.808;9.222;2022-07-15T00:56:37;23.80;1.00
702;DHT22;334;48.808;9.222;2022-07-15T00:57:43;23.80;1.00
702;DHT22;334;48.808;9.222;2022-07-15T00:58:47;23.70;1.00
702;DHT22;334;48.808;9.222;2022-07-15T00:59:50;23.70;1.00
702;DHT22;334;48.808;9.222;2022-07-15T01:00:54;23.80;1.00
702;DHT22;334;48.808;9.222;2022-07-15T01:01:56;23.70;1.00
702;DHT22;334;48.808;9.222;2022-07-15T01:03:00;23.70;1.00
702;DHT22;334;48.808;9.222;2022-07-15T01:04:03;23.60;1.00
702;DHT22;334;48.808;9.222;2022-07-15T01:05:06;23.60;1.00
702;DHT22;334;48.808;9.222;2022-07-15T01:06:10;23.60;1.00
702;DHT22;334;48.808;9.222;2022-07-15T01:07:13;23.60;1.00
702;DHT22;334;48.808;9.222;2022-07-15T01:08:15;23.60;1.00
702;DHT22;334;48.808;9.222;2022-07-15T01:09:20;23.60;1.00
702;DHT22;334;48.808;9.222;2022-07-15T01:12:39;23.50;1.00
702;DHT22;334;48.808;9.222;2022-07-15T01:13:44;23.50;1.00
702;DHT22;334;48.808;9.222;2022-07-15T01:14:46;23.40;1.00
702;DHT22;334;48.808;9.222;2022-07-15T01:15:49;23.40;1.00
702;DHT22;334;48.808;9.222;2022-07-15T01:16:51;23.40;1.00
702;DHT22;334;48.808;9.222;2022-07-15T01:17:52;23.40;1.00
702;DHT22;334;48.808;9.222;2022-07-15T01:18:55;23.40;1.00
702;DHT22;334;48.808;9.222;2022-07-15T01:19:57;23.30;1.00
702;DHT22;334;48.808;9.222;2022-07-15T01:20:59;23.30;1.00
702;DHT22;334;48.808;9.222;2022-07-15T01:22:01;23.30;1.00
702;DHT22;334;48.808;9.222;2022-07-15T01:23:03;23.30;1.00
702;DHT22;334;48.808;9.222;2022-07-15T01:24:05;23.30;1.00
702;DHT22;334;48.808;9.222;2022-07-15T01:25:08;23.30;1.00
702;DHT22;334;48.808;9.222;2022-07-15T01:26:10;23.30;1.00
702;DHT22;334;48.808;9.222;2022-07-15T01:27:13;23.30;1.00
702;DHT22;334;48.808;9.222;2022-07-15T01:28:14;23.30;1.00
702;DHT22;334;48.808;9.222;2022-07-15T01:29:16;23.20;1.00
702;DHT22;334;48.808;9.222;2022-07-15T01:30:18;23.20;1.00
702;DHT22;334;48.808;9.222;2022-07-15T01:31:20;23.20;1.00
702;DHT22;334;48.808;9.222;2022-07-15T01:32:22;23.20;1.00
702;DHT22;334;48.808;9.222;2022-07-15T01:33:24;23.20;1.00
702;DHT22;334;48.808;9.222;2022-07-15T01:34:25;23.20;1.00
702;DHT22;334;48.808;9.222;2022-07-15T01:35:27;23.10;1.00
702;DHT22;334;48.808;9.222;2022-07-15T01:36:30;23.10;1.00
702;DHT22;334;48.808;9.222;2022-07-15T01:37:33;23.20;1.00
702;DHT22;334;48.808;9.222;2022-07-15T01:38:35;23.10;1.00
702;DHT22;334;48.808;9.222;2022-07-15T01:39:49;23.10;1.00
702;DHT22;334;48.808;9.222;2022-07-15T01:40:52;23.10;1.00
702;DHT22;334;48.808;9.222;2022-07-15T01:41:54;23.10;1.00
702;DHT22;334;48.808;9.222;2022-07-15T01:42:56;23.10;1.00
702;DHT22;334;48.808;9.222;2022-07-15T01:43:57;23.10;1.00
702;DHT22;334;48.808;9.222;2022-07-15T01:44:59;23.00;1.00
702;DHT22;334;48.808;9.222;2022-07-15T01:46:01;23.00;1.00
702;DHT22;334;48.808;9.222;2022-07-15T01:47:04;23.00;1.00
702;DHT22;334;48.808;9.222;2022-07-15T01:48:06;23.00;1.00
702;DHT22;334;48.808;9.222;2022-07-15T01:49:08;23.00;1.00
702;DHT22;334;48.808;9.222;2022-07-15T01:50:33;23.00;1.00
702;DHT22;334;48.808;9.222;2022-07-15T01:51:35;23.00;1.00
702;DHT22;334;48.808;9.222;2022-07-15T01:52:37;23.00;1.00
702;DHT22;334;48.808;9.222;2022-07-15T01:53:39;23.00;1.00
702;DHT22;334;48.808;9.222;2022-07-15T01:54:42;22.90;1.00
702;DHT22;334;48.808;9.222;2022-07-15T01:55:44;22.90;1.00
702;DHT22;334;48.808;9.222;2022-07-15T01:56:52;22.90;1.00
702;DHT22;334;48.808;9.222;2022-07-15T01:57:54;22.90;1.00
702;DHT22;334;48.808;9.222;2022-07-15T01:58:56;22.90;1.00
702;DHT22;334;48.808;9.222;2022-07-15T01:59:59;22.90;1.00
702;DHT22;334;48.808;9.222;2022-07-15T02:01:01;22.80;1.00
702;DHT22;334;48.808;9.222;2022-07-15T02:02:03;22.80;1.00
702;DHT22;334;48.808;9.222;2022-07-15T02:03:05;22.80;1.00
702;DHT22;334;48.808;9.222;2022-07-15T02:04:10;22.80;1.00
702;DHT22;334;48.808;9.222;2022-07-15T02:05:12;22.80;1.00
702;DHT22;334;48.808;9.222;2022-07-15T02:06:14;22.70;1.00
702;DHT22;334;48.808;9.222;2022-07-15T02:07:16;22.70;1.00
702;DHT22;334;48.808;9.222;2022-07-15T02:08:18;22.70;1.00
702;DHT22;334;48.808;9.222;2022-07-15T02:09:19;22.70;1.00
702;DHT22;334;48.808;9.222;2022-07-15T02:10:21;22.70;1.00
702;DHT22;334;48.808;9.222;2022-07-15T02:11:23;22.70;1.00
702;DHT22;334;48.808;9.222;2022-07-15T02:12:25;22.70;1.00
702;DHT22;334;48.808;9.222;2022-07-15T02:13:27;22.70;1.00
702;DHT22;334;48.808;9.222;2022-07-15T02:14:28;22.60;1.00
702;DHT22;334;48.808;9.222;2022-07-15T02:15:30;22.60;1.00
702;DHT22;334;48.808;9.222;2022-07-15T02:16:34;22.60;1.00
702;DHT22;334;48.808;9.222;2022-07-15T02:17:37;22.60;1.00
702;DHT22;334;48.808;9.222;2022-07-15T02:18:38;22.60;1.00
702;DHT22;334;48.808;9.222;2022-07-15T02:19:40;22.60;1.00
702;DHT22;334;48.808;9.222;2022-07-15T02:20:42;22.60;1.00
702;DHT22;334;48.808;9.222;2022-07-15T02:21:44;22.80;1.00
702;DHT22;334;48.808;9.222;2022-07-15T02:22:46;22.70;1.00
702;DHT22;334;48.808;9.222;2022-07-15T02:23:48;22.60;1.00
702;DHT22;334;48.808;9.222;2022-07-15T02:24:50;22.60;1.00
702;DHT22;334;48.808;9.222;2022-07-15T02:25:52;22.50;1.00
702;DHT22;334;48.808;9.222;2022-07-15T02:26:53;22.50;1.00
702;DHT22;334;48.808;9.222;2022-07-15T02:28:00;22.50;1.00
702;DHT22;334;48.808;9.222;2022-07-15T02:29:03;22.50;1.00
702;DHT22;334;48.808;9.222;2022-07-15T02:30:05;22.50;1.00
702;DHT22;334;48.808;9.222;2022-07-15T02:31:07;22.50;1.00
702;DHT22;334;48.808;9.222;2022-07-15T02:32:09;22.50;1.00
702;DHT22;334;48.808;9.222;2022-07-15T02:33:10;22.50;1.00
702;DHT22;334;48.808;9.222;2022-07-15T02:34:15;22.50;1.00
702;DHT22;334;48.808;9.222;2022-07-15T02:35:17;22.50;1.00
702;DHT22;334;48.808;9.222;2022-07-15T02:36:19;22.50;1.00
702;DHT22;334;48.808;9.222;2022-07-15T02:37:21;22.50;1.00
702;DHT22;334;48.808;9.222;2022-07-15T02:38:23;22.50;1.00
702;DHT22;334;48.808;9.222;2022-07-15T02:39:25;22.40;1.00
702;DHT22;334;48.808;9.222;2022-07-15T02:40:27;22.40;1.00
702;DHT22;334;48.808;9.222;2022-07-15T02:41:29;22.40;1.00
702;DHT22;334;48.808;9.222;2022-07-15T02:42:31;22.40;1.00
702;DHT22;334;48.808;9.222;2022-07-15T02:43:34;22.40;1.00
702;DHT22;334;48.808;9.222;2022-07-15T02:44:36;22.40;1.00
702;DHT22;334;48.808;9.222;2022-07-15T02:45:38;22.40;1.00
702;DHT22;334;48.808;9.222;2022-07-15T02:46:40;22.40;1.00
702;DHT22;334;48.808;9.222;2022-07-15T02:47:42;22.30;1.00
702;DHT22;334;48.808;9.222;2022-07-15T02:48:43;22.30;1.00
702;DHT22;334;48.808;9.222;2022-07-15T02:49:45;22.30;1.00
702;DHT22;334;48.808;9.222;2022-07-15T02:50:48;22.30;1.00
702;DHT22;334;48.808;9.222;2022-07-15T02:51:50;22.30;1.00
702;DHT22;334;48.808;9.222;2022-07-15T02:52:52;22.30;1.00
702;DHT22;334;48.808;9.222;2022-07-15T02:53:54;22.20;1.00
702;DHT22;334;48.808;9.222;2022-07-15T02:54:56;22.20;1.00
702;DHT22;334;48.808;9.222;2022-07-15T02:55:58;22.20;1.00
702;DHT22;334;48.808;9.222;2022-07-15T02:57:00;22.20;1.00
702;DHT22;334;48.808;9.222;2022-07-15T02:58:02;22.20;1.00
702;DHT22;334;48.808;9.222;2022-07-15T02:59:04;22.20;1.00
702;DHT22;334;48.808;9.222;2022-07-15T03:00:09;22.10;1.00
702;DHT22;334;48.808;9.222;2022-07-15T03:01:11;22.10;1.00
702;DHT22;334;48.808;9.222;2022-07-15T03:02:13;22.00;1.00
702;DHT22;334;48.808;9.222;2022-07-15T03:03:15;22.00;1.00
702;DHT22;334;48.808;9.222;2022-07-15T03:04:18;22.00;1.00
702;DHT22;334;48.808;9.222;2022-07-15T03:05:19;22.00;1.00
702;DHT22;334;48.808;9.222;2022-07-15T03:06:22;22.00;1.00
702;DHT22;334;48.808;9.222;2022-07-15T03:07:24;22.00;1.00
702;DHT22;334;48.808;9.222;2022-07-15T03:08:25;22.00;1.00
702;DHT22;334;48.808;9.222;2022-07-15T03:09:27;22.00;1.00
702;DHT22;334;48.808;9.222;2022-07-15T03:10:30;21.90;1.00
702;DHT22;334;48.808;9.222;2022-07-15T03:11:31;21.90;1.00
702;DHT22;334;48.808;9.222;2022-07-15T03:12:33;21.90;1.00
702;DHT22;334;48.808;9.222;2022-07-15T03:13:35;21.90;1.00
702;DHT22;334;48.808;9.222;2022-07-15T03:14:37;21.90;1.00
702;DHT22;334;48.808;9.222;2022-07-15T03:15:39;21.90;1.00
702;DHT22;334;48.808;9.222;2022-07-15T03:16:41;21.90;1.00
702;DHT22;334;48.808;9.222;2022-07-15T03:17:43;21.90;1.00
702;DHT22;334;48.808;9.222;2022-07-15T03:18:45;21.80;1.00
702;DHT22;334;48.808;9.222;2022-07-15T03:19:47;21.80;1.00
702;DHT22;334;48.808;9.222;2022-07-15T03:20:49;21.80;1.00
702;DHT22;334;48.808;9.222;2022-07-15T03:21:51;21.80;1.00
702;DHT22;334;48.808;9.222;2022-07-15T03:22:53;21.70;1.00
702;DHT22;334;48.808;9.222;2022-07-15T03:23:55;21.60;1.00
702;DHT22;334;48.808;9.222;2022-07-15T03:24:57;21.60;1.00
702;DHT22;334;48.808;9.222;2022-07-15T03:25:59;21.60;1.00
702;DHT22;334;48.808;9.222;2022-07-15T03:27:01;21.60;1.00
702;DHT22;334;48.808;9.222;2022-07-15T03:28:03;21.50;1.00
702;DHT22;334;48.808;9.222;2022-07-15T03:29:05;21.50;1.00
702;DHT22;334;48.808;9.222;2022-07-15T03:30:07;21.50;1.00
702;DHT22;334;48.808;9.222;2022-07-15T03:31:09;21.50;1.00
702;DHT22;334;48.808;9.222;2022-07-15T03:32:12;21.50;1.00
702;DHT22;334;48.808;9.222;2022-07-15T03:33:17;21.50;1.00
702;DHT22;334;48.808;9.222;2022-07-15T03:34:19;21.60;1.00
702;DHT22;334;48.808;9.222;2022-07-15T03:35:22;21.50;1.00
702;DHT22;334;48.808;9.222;2022-07-15T03:36:24;21.60;1.00
702;DHT22;334;48.808;9.222;2022-07-15T03:37:26;21.60;1.00
702;DHT22;334;48.808;9.222;2022-07-15T03:38:28;21.60;1.00
702;DHT22;334;48.808;9.222;2022-07-15T03:39:30;21.60;1.00
702;DHT22;334;48.808;9.222;2022-07-15T03:40:32;21.50;1.00
702;DHT22;334;48.808;9.222;2022-07-15T03:41:34;21.50;1.00
702;DHT22;334;48.808;9.222;2022-07-15T03:42:36;21.50;1.00
702;DHT22;334;48.808;9.222;2022-07-15T03:43:37;21.50;1.00
702;DHT22;334;48.808;9.222;2022-07-15T03:44:39;21.50;1.00
702;DHT22;334;48.808;9.222;2022-07-15T03:45:42;21.50;1.00
702;DHT22;334;48.808;9.222;2022-07-15T03:46:44;21.60;1.00
702;DHT22;334;48.808;9.222;2022-07-15T03:47:48;21.60;1.00
702;DHT22;334;48.808;9.222;2022-07-15T03:48:50;21.60;1.00
702;DHT22;334;48.808;9.222;2022-07-15T03:49:52;21.50;1.00
702;DHT22;334;48.808;9.222;2022-07-15T03:50:54;21.50;1.00
702;DHT22;334;48.808;9.222;2022-07-15T03:51:55;21.50;1.00
702;DHT22;334;48.808;9.222;2022-07-15T03:52:57;21.50;1.00
702;DHT22;334;48.808;9.222;2022-07-15T03:54:00;21.50;1.00
702;DHT22;334;48.808;9.222;2022-07-15T03:55:03;21.40;1.00
702;DHT22;334;48.808;9.222;2022-07-15T03:56:05;21.40;1.00
702;DHT22;334;48.808;9.222;2022-07-15T03:57:07;21.40;1.00
702;DHT22;334;48.808;9.222;2022-07-15T03:58:08;21.40;1.00
702;DHT22;334;48.808;9.222;2022-07-15T03:59:14;21.40;1.00
702;DHT22;334;48.808;9.222;2022-07-15T04:00:16;21.40;1.00
702;DHT22;334;48.808;9.222;2022-07-15T04:01:18;21.40;1.00
702;DHT22;334;48.808;9.222;2022-07-15T04:02:21;21.30;1.00
702;DHT22;334;48.808;9.222;2022-07-15T04:03:23;21.40;1.00
702;DHT22;334;48.808;9.222;2022-07-15T04:04:25;21.40;1.00
702;DHT22;334;48.808;9.222;2022-07-15T04:05:26;21.30;1.00
702;DHT22;334;48.808;9.222;2022-07-15T04:06:28;21.30;1.00
702;DHT22;334;48.808;9.222;2022-07-15T04:07:30;21.30;1.00
702;DHT22;334;48.808;9.222;2022-07-15T04:08:32;21.30;1.00
702;DHT22;334;48.808;9.222;2022-07-15T04:09:34;21.30;1.00
702;DHT22;334;48.808;9.222;2022-07-15T04:10:36;21.20;1.00
702;DHT22;334;48.808;9.222;2022-07-15T04:11:38;21.20;1.00
702;DHT22;334;48.808;9.222;2022-07-15T04:12:44;21.20;1.00
702;DHT22;334;48.808;9.222;2022-07-15T04:13:46;21.20;1.00
702;DHT22;334;48.808;9.222;2022-07-15T04:14:49;21.10;1.00
702;DHT22;334;48.808;9.222;2022-07-15T04:15:50;21.10;1.00
702;DHT22;334;48.808;9.222;2022-07-15T04:16:52;21.10;1.00
702;DHT22;334;48.808;9.222;2022-07-15T04:17:54;21.10;1.00
702;DHT22;334;48.808;9.222;2022-07-15T04:18:56;21.10;1.00
702;DHT22;334;48.808;9.222;2022-07-15T04:19:59;21.10;1.00
702;DHT22;334;48.808;9.222;2022-07-15T04:21:01;21.10;1.00
702;DHT22;334;48.808;9.222;2022-07-15T04:22:03;21.10;1.00
702;DHT22;334;48.808;9.222;2022-07-15T04:23:05;21.10;1.00
702;DHT22;334;48.808;9.222;2022-07-15T04:24:07;21.10;1.00
702;DHT22;334;48.808;9.222;2022-07-15T04:25:10;21.10;1.00
702;DHT22;334;48.808;9.222;2022-07-15T04:26:12;21.10;1.00
702;DHT22;334;48.808;9.222;2022-07-15T04:27:14;21.10;1.00
702;DHT22;334;48.808;9.222;2022-07-15T04:28:16;21.10;1.00
702;DHT22;334;48.808;9.222;2022-07-15T04:29:18;21.00;1.00
702;DHT22;334;48.808;9.222;2022-07-15T04:30:20;21.00;1.00
702;DHT22;334;48.808;9.222;2022-07-15T04:31:22;21.00;1.00
702;DHT22;334;48.808;9.222;2022-07-15T04:32:24;21.00;1.00
702;DHT22;334;48.808;9.222;2022-07-15T04:33:28;20.90;1.00
702;DHT22;334;48.808;9.222;2022-07-15T04:34:30;20.90;1.00
702;DHT22;334;48.808;9.222;2022-07-15T04:35:33;20.90;1.00
702;DHT22;334;48.808;9.222;2022-07-15T04:36:35;21.00;1.00
702;DHT22;334;48.808;9.222;2022-07-15T04:37:37;21.00;1.00
702;DHT22;334;48.808;9.222;2022-07-15T04:38:39;21.00;1.00
702;DHT22;334;48.808;9.222;2022-07-15T04:39:41;21.00;1.00
702;DHT22;334;48.808;9.222;2022-07-15T04:40:43;21.00;1.00
702;DHT22;334;48.808;9.222;2022-07-15T04:41:46;21.00;1.00
702;DHT22;334;48.808;9.222;2022-07-15T04:42:48;21.10;1.00
702;DHT22;334;48.808;9.222;2022-07-15T04:43:51;21.00;1.00
702;DHT22;334;48.808;9.222;2022-07-15T04:44:53;21.10;1.00
702;DHT22;334;48.808;9.222;2022-07-15T04:45:55;21.10;1.00
702;DHT22;334;48.808;9.222;2022-07-15T04:47:00;21.10;1.00
702;DHT22;334;48.808;9.222;2022-07-15T04:48:04;21.10;1.00
702;DHT22;334;48.808;9.222;2022-07-15T04:49:26;21.10;1.00
702;DHT22;334;48.808;9.222;2022-07-15T04:50:47;21.10;1.00
702;DHT22;334;48.808;9.222;2022-07-15T04:51:53;21.10;1.00
702;DHT22;334;48.808;9.222;2022-07-15T04:52:55;21.10;1.00
702;DHT22;334;48.808;9.222;2022-07-15T04:53:57;21.10;1.00
702;DHT22;334;48.808;9.222;2022-07-15T04:55:08;21.10;1.00
702;DHT22;334;48.808;9.222;2022-07-15T04:56:10;21.10;1.00
702;DHT22;334;48.808;9.222;2022-07-15T04:57:12;21.20;1.00
702;DHT22;334;48.808;9.222;2022-07-15T04:58:15;21.20;1.00
702;DHT22;334;48.808;9.222;2022-07-15T04:59:17;21.20;1.00
702;DHT22;334;48.808;9.222;2022-07-15T05:00:19;21.20;1.00
702;DHT22;334;48.808;9.222;2022-07-15T05:01:20;21.20;1.00
702;DHT22;334;48.808;9.222;2022-07-15T05:02:30;21.30;1.00
702;DHT22;334;48.808;9.222;2022-07-15T05:03:32;21.30;1.00
702;DHT22;334;48.808;9.222;2022-07-15T05:04:35;21.30;1.00
702;DHT22;334;48.808;9.222;2022-07-15T05:05:37;21.40;1.00
702;DHT22;334;48.808;9.222;2022-07-15T05:06:39;21.30;1.00
702;DHT22;334;48.808;9.222;2022-07-15T05:07:41;21.30;1.00
702;DHT22;334;48.808;9.222;2022-07-15T05:08:45;21.30;1.00
702;DHT22;334;48.808;9.222;2022-07-15T05:09:48;21.40;1.00
702;DHT22;334;48.808;9.222;2022-07-15T05:10:50;21.40;1.00
702;DHT22;334;48.808;9.222;2022-07-15T05:11:53;21.40;1.00
702;DHT22;334;48.808;9.222;2022-07-15T05:12:55;21.40;1.00
702;DHT22;334;48.808;9.222;2022-07-15T05:13:57;21.40;1.00
702;DHT22;334;48.808;9.222;2022-07-15T05:14:59;21.40;1.00
702;DHT22;334;48.808;9.222;2022-07-15T05:16:03;21.40;1.00
702;DHT22;334;48.808;9.222;2022-07-15T05:17:05;21.40;1.00
702;DHT22;334;48.808;9.222;2022-07-15T05:18:08;21.50;1.00
702;DHT22;334;48.808;9.222;2022-07-15T05:19:10;21.50;1.00
702;DHT22;334;48.808;9.222;2022-07-15T05:20:12;21.50;1.00
702;DHT22;334;48.808;9.222;2022-07-15T05:21:14;21.50;1.00
702;DHT22;334;48.808;9.222;2022-07-15T05:22:25;21.50;1.00
702;DHT22;334;48.808;9.222;2022-07-15T05:23:27;21.50;1.00
702;DHT22;334;48.808;9.222;2022-07-15T05:24:29;21.50;1.00
702;DHT22;334;48.808;9.222;2022-07-15T05:25:31;21.50;1.00
702;DHT22;334;48.808;9.222;2022-07-15T05:26:35;21.60;1.00
702;DHT22;334;48.808;9.222;2022-07-15T05:27:45;21.60;1.00
702;DHT22;334;48.808;9.222;2022-07-15T05:28:47;21.60;1.00
702;DHT22;334;48.808;9.222;2022-07-15T05:29:49;21.60;1.00
702;DHT22;334;48.808;9.222;2022-07-15T05:30:51;21.60;1.00
702;DHT22;334;48.808;9.222;2022-07-15T05:31:55;21.70;1.00
702;DHT22;334;48.808;9.222;2022-07-15T05:32:57;21.70;1.00
702;DHT22;334;48.808;9.222;2022-07-15T05:33:59;21.70;1.00
702;DHT22;334;48.808;9.222;2022-07-15T05:35:01;21.70;1.00
702;DHT22;334;48.808;9.222;2022-07-15T05:36:03;21.80;1.00
702;DHT22;334;48.808;9.222;2022-07-15T05:37:05;21.80;1.00
702;DHT22;334;48.808;9.222;2022-07-15T05:38:07;21.80;1.00
702;DHT22;334;48.808;9.222;2022-07-15T05:39:10;21.90;1.00
702;DHT22;334;48.808;9.222;2022-07-15T05:40:12;21.90;1.00
702;DHT22;334;48.808;9.222;2022-07-15T05:41:14;21.90;1.00
702;DHT22;334;48.808;9.222;2022-07-15T05:42:16;22.00;1.00
702;DHT22;334;48.808;9.222;2022-07-15T05:43:39;22.00;1.00
702;DHT22;334;48.808;9.222;2022-07-15T05:44:41;22.10;1.00
702;DHT22;334;48.808;9.222;2022-07-15T05:45:42;22.10;1.00
702;DHT22;334;48.808;9.222;2022-07-15T05:46:44;22.10;1.00
702;DHT22;334;48.808;9.222;2022-07-15T05:47:50;22.20;1.00
702;DHT22;334;48.808;9.222;2022-07-15T05:48:52;22.20;1.00
702;DHT22;334;48.808;9.222;2022-07-15T05:49:54;22.30;1.00
702;DHT22;334;48.808;9.222;2022-07-15T05:50:56;22.40;1.00
702;DHT22;334;48.808;9.222;2022-07-15T05:51:58;22.40;1.00
702;DHT22;334;48.808;9.222;2022-07-15T05:53:03;22.50;1.00
702;DHT22;334;48.808;9.222;2022-07-15T05:54:05;22.50;1.00
702;DHT22;334;48.808;9.222;2022-07-15T05:55:08;22.60;1.00
702;DHT22;334;48.808;9.222;2022-07-15T05:56:10;22.60;1.00
702;DHT22;334;48.808;9.222;2022-07-15T05:57:11;22.70;1.00
702;DHT22;334;48.808;9.222;2022-07-15T05:58:13;22.70;1.00
702;DHT22;334;48.808;9.222;2022-07-15T05:59:15;22.70;1.00
702;DHT22;334;48.808;9.222;2022-07-15T06:00:17;22.80;1.00
702;DHT22;334;48.808;9.222;2022-07-15T06:01:19;22.80;1.00
702;DHT22;334;48.808;9.222;2022-07-15T06:02:23;22.90;1.00
702;DHT22;334;48.808;9.222;2022-07-15T06:03:25;23.10;1.00
702;DHT22;334;48.808;9.222;2022-07-15T06:04:27;23.10;1.00
702;DHT22;334;48.808;9.222;2022-07-15T06:05:29;23.20;1.00
702;DHT22;334;48.808;9.222;2022-07-15T06:06:31;23.20;1.00
702;DHT22;334;48.808;9.222;2022-07-15T06:07:33;23.30;1.00
702;DHT22;334;48.808;9.222;2022-07-15T06:08:35;23.40;1.00
702;DHT22;334;48.808;9.222;2022-07-15T06:09:43;23.50;1.00
702;DHT22;334;48.808;9.222;2022-07-15T06:10:45;23.60;1.00
702;DHT22;334;48.808;9.222;2022-07-15T06:11:47;23.60;1.00
702;DHT22;334;48.808;9.222;2022-07-15T06:12:49;23.70;1.00
702;DHT22;334;48.808;9.222;2022-07-15T06:13:52;23.80;1.00
702;DHT22;334;48.808;9.222;2022-07-15T06:14:53;23.90;1.00
702;DHT22;334;48.808;9.222;2022-07-15T06:15:55;24.00;1.00
702;DHT22;334;48.808;9.222;2022-07-15T06:16:58;24.10;1.00
702;DHT22;334;48.808;9.222;2022-07-15T06:18:00;24.10;1.00
702;DHT22;334;48.808;9.222;2022-07-15T06:19:03;24.20;1.00
702;DHT22;334;48.808;9.222;2022-07-15T06:20:06;24.30;1.00
702;DHT22;334;48.808;9.222;2022-07-15T06:21:12;24.40;1.00
702;DHT22;334;48.808;9.222;2022-07-15T06:22:15;24.40;1.00
702;DHT22;334;48.808;9.222;2022-07-15T06:23:17;24.50;1.00
702;DHT22;334;48.808;9.222;2022-07-15T06:24:18;24.60;1.00
702;DHT22;334;48.808;9.222;2022-07-15T06:25:21;24.60;1.00
702;DHT22;334;48.808;9.222;2022-07-15T06:26:23;24.70;1.00
702;DHT22;334;48.808;9.222;2022-07-15T06:27:25;24.70;1.00
702;DHT22;334;48.808;9.222;2022-07-15T06:28:27;24.70;1.00
702;DHT22;334;48.808;9.222;2022-07-15T06:29:29;24.80;1.00
702;DHT22;334;48.808;9.222;2022-07-15T06:30:31;24.80;1.00
702;DHT22;334;48.808;9.222;2022-07-15T06:31:32;24.90;1.00
702;DHT22;334;48.808;9.222;2022-07-15T06:32:35;24.90;1.00
702;DHT22;334;48.808;9.222;2022-07-15T06:33:37;25.00;1.00
702;DHT22;334;48.808;9.222;2022-07-15T06:34:40;25.00;1.00
702;DHT22;334;48.808;9.222;2022-07-15T06:35:41;25.00;1.00
702;DHT22;334;48.808;9.222;2022-07-15T06:36:46;25.10;1.00
702;DHT22;334;48.808;9.222;2022-07-15T06:37:47;25.10;1.00
702;DHT22;334;48.808;9.222;2022-07-15T06:38:50;25.10;1.00
702;DHT22;334;48.808;9.222;2022-07-15T06:39:52;25.20;1.00
702;DHT22;334;48.808;9.222;2022-07-15T06:40:56;25.20;1.00
702;DHT22;334;48.808;9.222;2022-07-15T06:41:58;25.20;1.00
702;DHT22;334;48.808;9.222;2022-07-15T06:43:00;25.10;1.00
702;DHT22;334;48.808;9.222;2022-07-15T06:44:03;25.10;1.00
702;DHT22;334;48.808;9.222;2022-07-15T06:45:08;25.00;1.00
702;DHT22;334;48.808;9.222;2022-07-15T06:46:11;25.00;1.00
702;DHT22;334;48.808;9.222;2022-07-15T06:47:13;25.00;1.00
702;DHT22;334;48.808;9.222;2022-07-15T06:48:15;25.00;1.00
702;DHT22;334;48.808;9.222;2022-07-15T06:49:17;25.00;1.00
702;DHT22;334;48.808;9.222;2022-07-15T06:50:19;25.10;1.00
702;DHT22;334;48.808;9.222;2022-07-15T06:51:24;25.10;1.00
702;DHT22;334;48.808;9.222;2022-07-15T06:52:25;25.10;1.00
702;DHT22;334;48.808;9.222;2022-07-15T06:53:27;25.10;1.00
702;DHT22;334;48.808;9.222;2022-07-15T06:54:29;25.10;1.00
702;DHT22;334;48.808;9.222;2022-07-15T06:55:31;25.10;1.00
702;DHT22;334;48.808;9.222;2022-07-15T06:56:33;25.10;1.00
702;DHT22;334;48.808;9.222;2022-07-15T06:57:35;25.20;1.00
702;DHT22;334;48.808;9.222;2022-07-15T06:58:38;25.20;1.00
702;DHT22;334;48.808;9.222;2022-07-15T06:59:40;25.20;1.00
702;DHT22;334;48.808;9.222;2022-07-15T07:00:43;25.20;1.00
702;DHT22;334;48.808;9.222;2022-07-15T07:01:47;25.20;1.00
702;DHT22;334;48.808;9.222;2022-07-15T07:02:49;25.20;1.00
702;DHT22;334;48.808;9.222;2022-07-15T07:03:52;25.20;1.00
702;DHT22;334;48.808;9.222;2022-07-15T07:04:59;25.20;1.00
702;DHT22;334;48.808;9.222;2022-07-15T07:06:04;25.30;1.00
702;DHT22;334;48.808;9.222;2022-07-15T07:07:08;25.30;1.00
702;DHT22;334;48.808;9.222;2022-07-15T07:08:10;25.30;1.00
702;DHT22;334;48.808;9.222;2022-07-15T07:09:12;25.30;1.00
702;DHT22;334;48.808;9.222;2022-07-15T07:10:14;25.30;1.00
702;DHT22;334;48.808;9.222;2022-07-15T07:11:15;25.40;1.00
702;DHT22;334;48.808;9.222;2022-07-15T07:12:19;25.30;1.00
702;DHT22;334;48.808;9.222;2022-07-15T07:13:21;25.30;1.00